»·PEaware :: N5301H KEMT-KLGB

N5301H :: KEMT-KLGB

FLIGHT INFORMATION

Flight Status: Arrived
Operator: Privately registered:
United States
More flights under this callsign
Pilot: Philip S. (16957)
Aircraft: CESSNA 152 AEROBAT
(C152)
More flights by this aircraft type
Origin: KEMT El Monte
United States
Destination: KLGB Long Beach
United States
More flights between these airports :: More routes between these airports
Route: +KEMT PDZ SLI LGB
File this flight plan on PilotEdge
Remarks: / U
Altitude:
(Current/Filed)
6,000ft
Speed:
(Current/Filed)
90kts
Departed: 13-Mar-18 08:54 PM
Arrived: 13-Mar-18 09:18 PM
Distance/Time
Traveled:
17nm/0:24
Distance/Time
To Go:
Arrived

Flight Plot

Page will automatically refresh every two minutes.

Flight plan parsing failed; only flown route is shown


Map Options




Map Legend


Flown Route
Filed Route
Departure Airport
Arrival Airport
Navaid (VOR, NDB)
Fix

Horizontal Profiles

Position Reports

Time Latitude Longitude Heading Altitude Ground
Speed
13-Mar-18 20:07 34.085301 -118.034422 205 298ft 0kts
13-Mar-18 20:08 34.085301 -118.034422 304 298ft 0kts
13-Mar-18 20:09 34.085301 -118.034422 304 298ft 0kts
13-Mar-18 20:10 34.085301 -118.034422 304 298ft 0kts
13-Mar-18 20:11 34.085301 -118.034422 304 298ft 0kts
13-Mar-18 20:12 34.085301 -118.034422 304 298ft 0kts
13-Mar-18 20:13 34.085301 -118.034422 304 298ft 0kts
13-Mar-18 20:14 34.085301 -118.034422 304 298ft 0kts
13-Mar-18 20:15 34.085301 -118.034422 304 298ft 0kts
13-Mar-18 20:16 34.085301 -118.034422 304 298ft 0kts
13-Mar-18 20:17 34.085301 -118.034422 304 298ft 0kts
13-Mar-18 20:18 34.085301 -118.034422 304 298ft 0kts
13-Mar-18 20:19 34.085301 -118.034422 304 298ft 0kts
13-Mar-18 20:20 34.085301 -118.034422 304 298ft 0kts
13-Mar-18 20:21 34.085301 -118.034422 304 298ft 0kts
13-Mar-18 20:22 34.085301 -118.034422 304 298ft 0kts
13-Mar-18 20:23 34.085301 -118.034422 304 298ft 0kts
13-Mar-18 20:24 34.085301 -118.034422 304 298ft 0kts
13-Mar-18 20:25 34.085301 -118.034422 304 298ft 0kts
13-Mar-18 20:26 34.085301 -118.034422 304 298ft 0kts
13-Mar-18 20:27 34.085301 -118.034422 304 298ft 0kts
13-Mar-18 20:28 34.085301 -118.034422 304 298ft 0kts
13-Mar-18 20:29 34.085301 -118.034422 304 298ft 0kts
13-Mar-18 20:30 34.085301 -118.034422 304 298ft 0kts
13-Mar-18 20:31 34.085301 -118.034422 304 298ft 0kts
13-Mar-18 20:32 34.085332 -118.034448 344 298ft 2kts
13-Mar-18 20:33 34.088969 -118.032505 23 298ft 11kts
13-Mar-18 20:34 34.090681 -118.031596 347 298ft 0kts
13-Mar-18 20:35 34.090681 -118.031596 347 298ft 0kts
13-Mar-18 20:36 34.090681 -118.031596 347 298ft 0kts
13-Mar-18 20:37 34.090681 -118.031596 347 298ft 0kts
13-Mar-18 20:38 34.090681 -118.031596 347 298ft 0kts
13-Mar-18 20:39 34.090681 -118.031596 347 298ft 0kts
13-Mar-18 20:40 34.090681 -118.031596 347 298ft 0kts
13-Mar-18 20:41 34.090681 -118.031596 347 298ft 0kts
13-Mar-18 20:42 34.090681 -118.031596 347 298ft 0kts
13-Mar-18 20:43 34.090681 -118.031596 347 298ft 0kts
13-Mar-18 20:44 34.090681 -118.031596 347 298ft 0kts
13-Mar-18 20:45 34.090681 -118.031596 347 298ft 0kts
13-Mar-18 20:46 34.090681 -118.031596 347 298ft 0kts
13-Mar-18 20:47 34.090681 -118.031596 347 298ft 0kts
13-Mar-18 20:51 34.090808 -118.032091 205 298ft 0kts
13-Mar-18 20:52 34.090808 -118.032091 205 298ft 0kts
13-Mar-18 20:53 34.083123 -118.037120 219 514ft 64kts
13-Mar-18 20:54 34.071530 -118.048232 216 1174ft 60kts
13-Mar-18 20:55 34.058070 -118.047166 88 1836ft 68kts
13-Mar-18 20:56 34.059761 -118.025793 85 2567ft 61kts
13-Mar-18 20:57 34.063704 -118.005918 73 3159ft 69kts
13-Mar-18 20:58 34.058487 -117.995598 196 3708ft 75kts
13-Mar-18 20:59 34.036812 -118.000253 189 3896ft 106kts
13-Mar-18 21:00 34.008401 -118.006503 191 3917ft 107kts
13-Mar-18 21:01 33.980607 -118.012508 187 3905ft 105kts
13-Mar-18 21:02 33.955674 -118.017665 193 3868ft 107kts
13-Mar-18 21:03 33.931888 -118.024525 187 3880ft 105kts
13-Mar-18 21:04 33.908612 -118.029041 186 3924ft 101kts
13-Mar-18 21:05 33.884423 -118.032096 183 3908ft 102kts
13-Mar-18 21:06 33.857648 -118.033662 186 3724ft 116kts
13-Mar-18 21:07 33.833173 -118.042402 186 3921ft 99kts
13-Mar-18 21:08 33.805248 -118.048457 197 3043ft 109kts
13-Mar-18 21:09 33.777980 -118.054650 159 2178ft 95kts
13-Mar-18 21:10 33.754929 -118.043377 124 1969ft 84kts
13-Mar-18 21:11 33.754784 -118.033872 62 1895ft 92kts
13-Mar-18 21:12 33.768178 -118.035864 312 1923ft 92kts
13-Mar-18 21:13 33.785537 -118.057219 290 2063ft 82kts
13-Mar-18 21:14 33.790878 -118.081159 289 1442ft 107kts
13-Mar-18 21:15 33.799830 -118.110491 287 843ft 111kts
13-Mar-18 21:16 33.804112 -118.133592 294 447ft 68kts
13-Mar-18 21:17 33.813013 -118.145607 314 63ft 36kts
13-Mar-18 21:18 33.813718 -118.148902 187 63ft 10kts

Navigation Log

Ident Type
Flight plan parsing failed, navigation log unavailable